createdAt,value
2023-03-15T00:00:42.913Z,5.47
2023-03-15T00:03:11.057Z,6.00
2023-03-15T00:05:42.567Z,5.65
2023-03-15T00:08:12.148Z,5.53
2023-03-15T00:10:42.929Z,6.47
2023-03-15T00:13:11.046Z,6.05
2023-03-15T00:15:46.516Z,6.00
2023-03-15T00:18:15.370Z,8.18
2023-03-15T00:20:43.494Z,5.90
2023-03-15T00:23:11.952Z,5.70
2023-03-15T00:25:40.210Z,4.85
2023-03-15T00:28:09.398Z,4.38
2023-03-15T00:30:37.421Z,4.88
2023-03-15T00:33:05.933Z,5.55
2023-03-15T00:35:34.842Z,5.40
2023-03-15T00:38:04.674Z,4.40
2023-03-15T00:40:32.496Z,4.95
2023-03-15T00:43:00.355Z,4.82
2023-03-15T00:45:29.526Z,5.00
2023-03-15T00:47:57.341Z,4.70
2023-03-15T00:50:25.281Z,4.75
2023-03-15T00:52:53.092Z,4.10
2023-03-15T00:55:21.791Z,3.92
2023-03-15T00:57:49.910Z,4.70
2023-03-15T01:00:23.298Z,3.83
2023-03-15T01:02:52.902Z,3.97
2023-03-15T01:05:21.109Z,3.75
2023-03-15T01:07:49.217Z,4.03
2023-03-15T01:10:17.829Z,3.67
2023-03-15T01:12:46.423Z,3.47
2023-03-15T01:15:15.588Z,3.67
2023-03-15T01:17:43.769Z,3.90
2023-03-15T01:20:14.942Z,3.35
2023-03-15T01:22:42.825Z,2.90
2023-03-15T01:25:11.399Z,3.45
2023-03-15T01:27:41.063Z,3.20
2023-03-15T01:30:13.124Z,4.15
2023-03-15T01:32:43.585Z,3.05
2023-03-15T01:35:13.145Z,3.13
2023-03-15T01:37:42.761Z,3.13
2023-03-15T01:40:14.461Z,2.63
2023-03-15T01:43:12.992Z,2.97
2023-03-15T01:46:03.988Z,3.10
2023-03-15T01:48:37.791Z,3.78
2023-03-15T01:51:11.614Z,2.30
2023-03-15T01:53:43.109Z,2.70
2023-03-15T01:56:11.595Z,3.15
2023-03-15T01:58:42.187Z,3.25
2023-03-15T02:01:11.295Z,2.97
2023-03-15T02:03:46.585Z,2.83
2023-03-15T02:06:21.750Z,2.53
2023-03-15T02:08:52.702Z,2.55
2023-03-15T02:11:22.384Z,2.53
2023-03-15T02:13:51.584Z,2.35
2023-03-15T02:16:24.535Z,2.25
2023-03-15T02:18:52.767Z,2.42
2023-03-15T02:21:34.010Z,2.60
2023-03-15T02:24:11.720Z,3.28
2023-03-15T02:26:46.311Z,2.53
2023-03-15T02:29:15.807Z,2.40
2023-03-15T02:31:44.100Z,2.45
2023-03-15T02:34:11.982Z,2.72
2023-03-15T02:36:40.827Z,2.90
2023-03-15T02:39:16.732Z,2.97
2023-03-15T02:41:48.800Z,2.75
2023-03-15T02:44:22.783Z,2.13
2023-03-15T02:46:58.152Z,2.38
2023-03-15T02:49:31.563Z,2.65
2023-03-15T02:51:59.554Z,2.90
2023-03-15T02:54:29.358Z,2.92
2023-03-15T02:56:57.200Z,2.30
2023-03-15T02:59:26.789Z,3.15
2023-03-15T03:01:57.188Z,2.63
2023-03-15T03:04:25.027Z,2.85
2023-03-15T03:06:52.974Z,3.03
2023-03-15T03:09:20.849Z,4.05
2023-03-15T03:11:48.693Z,3.05
2023-03-15T03:14:16.580Z,3.63
2023-03-15T03:16:45.802Z,3.80
2023-03-15T03:19:13.660Z,2.58
2023-03-15T03:21:44.379Z,3.30
2023-03-15T03:24:16.208Z,3.42
2023-03-15T03:26:45.984Z,2.78
2023-03-15T03:29:16.755Z,3.08
2023-03-15T03:31:46.119Z,3.58
2023-03-15T03:34:15.625Z,3.00
2023-03-15T03:36:44.209Z,2.97
2023-03-15T03:39:12.523Z,3.83
2023-03-15T03:41:42.017Z,3.47
2023-03-15T03:44:09.857Z,3.05
2023-03-15T03:46:37.716Z,3.65
2023-03-15T03:49:06.956Z,3.88
2023-03-15T03:51:34.967Z,3.55
2023-03-15T03:54:03.209Z,3.30
2023-03-15T03:56:31.317Z,3.55
2023-03-15T03:58:59.148Z,4.40
2023-03-15T04:01:27.019Z,3.17
2023-03-15T04:03:55.086Z,4.15
2023-03-15T04:06:24.348Z,4.13
2023-03-15T04:08:52.270Z,4.75
2023-03-15T04:11:20.246Z,3.95
2023-03-15T04:13:50.256Z,4.13
2023-03-15T04:16:18.171Z,4.65
2023-03-15T04:18:46.042Z,4.53
2023-03-15T04:21:16.721Z,4.20
2023-03-15T04:23:45.927Z,4.80
2023-03-15T04:26:14.585Z,4.05
2023-03-15T04:28:42.705Z,3.85
2023-03-15T04:31:14.723Z,5.47
2023-03-15T04:33:44.585Z,4.22
2023-03-15T04:36:18.327Z,4.32
2023-03-15T04:38:47.630Z,4.68
2023-03-15T04:41:17.583Z,4.70
2023-03-15T04:43:46.034Z,5.07
2023-03-15T04:46:13.876Z,4.80
2023-03-15T04:48:42.155Z,5.35
2023-03-15T04:51:10.062Z,5.53
2023-03-15T04:53:39.020Z,4.13
2023-03-15T04:56:08.829Z,5.05
2023-03-15T04:58:36.710Z,5.97
2023-03-15T05:01:07.023Z,4.93
2023-03-15T05:03:36.677Z,4.82
2023-03-15T05:06:08.180Z,4.78
2023-03-15T05:08:38.960Z,4.85
2023-03-15T05:11:08.191Z,5.78
2023-03-15T05:13:36.012Z,4.93
2023-03-15T05:16:07.090Z,5.10
2023-03-15T05:18:37.691Z,4.80
2023-03-15T05:21:06.175Z,4.80
2023-03-15T05:23:37.075Z,5.00
2023-03-15T05:26:05.472Z,4.40
2023-03-15T05:28:37.490Z,5.22
2023-03-15T05:31:05.474Z,5.45
2023-03-15T05:33:34.963Z,4.57
2023-03-15T05:36:03.497Z,5.53
2023-03-15T05:38:31.337Z,6.85
2023-03-15T05:40:59.176Z,5.13
2023-03-15T05:43:26.986Z,5.35
2023-03-15T05:45:56.285Z,4.40
2023-03-15T05:48:24.117Z,4.15
2023-03-15T05:50:51.941Z,4.80
2023-03-15T05:53:19.783Z,5.22
2023-03-15T05:55:47.622Z,4.82
2023-03-15T05:58:15.474Z,5.50
2023-03-15T06:00:43.331Z,5.68
2023-03-15T06:03:12.648Z,4.50
2023-03-15T06:05:40.542Z,5.13
2023-03-15T06:08:08.440Z,5.15
2023-03-15T06:10:36.359Z,5.72
2023-03-15T06:13:04.338Z,5.40
2023-03-15T06:15:32.742Z,5.72
2023-03-15T06:18:00.615Z,5.20
2023-03-15T06:20:29.844Z,5.93
2023-03-15T06:22:57.846Z,5.72
2023-03-15T06:25:25.706Z,5.32
2023-03-15T06:27:53.588Z,4.53
2023-03-15T06:30:21.651Z,5.07
2023-03-15T06:32:49.564Z,5.10
2023-03-15T06:35:17.539Z,6.22
2023-03-15T06:37:46.725Z,4.65
2023-03-15T06:40:15.305Z,4.85
2023-03-15T06:42:43.165Z,4.40
2023-03-15T06:45:11.704Z,3.90
2023-03-15T06:47:39.927Z,4.63
2023-03-15T06:50:08.871Z,4.32
2023-03-15T06:52:36.720Z,4.97
2023-03-15T06:55:07.066Z,3.22
2023-03-15T06:57:34.925Z,4.00
2023-03-15T07:00:07.009Z,4.97
2023-03-15T07:02:37.745Z,3.85
2023-03-15T07:05:06.722Z,4.72
2023-03-15T07:07:34.687Z,3.55
2023-03-15T07:10:02.559Z,4.68
2023-03-15T07:12:31.711Z,4.32
2023-03-15T07:14:59.591Z,4.10
2023-03-15T07:17:27.453Z,3.80
2023-03-15T07:19:56.865Z,3.53
2023-03-15T07:22:25.130Z,3.17
2023-03-15T07:24:53.231Z,3.58
2023-03-15T07:27:21.061Z,3.88
2023-03-15T07:29:50.285Z,5.07
2023-03-15T07:32:18.441Z,3.55
2023-03-15T07:34:46.370Z,4.68
2023-03-15T07:37:14.216Z,5.07
2023-03-15T07:39:42.230Z,3.15
2023-03-15T07:42:10.630Z,3.50
2023-03-15T07:44:38.495Z,3.60
2023-03-15T07:47:08.164Z,6.18
2023-03-15T07:49:36.004Z,4.07
2023-03-15T07:52:04.378Z,3.00
2023-03-15T07:54:34.306Z,3.58
2023-03-15T07:57:02.154Z,3.35
2023-03-15T07:59:30.116Z,2.95
2023-03-15T08:02:00.130Z,3.22
2023-03-15T08:04:30.725Z,3.65
2023-03-15T08:06:58.555Z,3.00
2023-03-15T08:09:26.484Z,2.85
2023-03-15T08:11:54.298Z,2.67
2023-03-15T08:14:22.137Z,2.80
2023-03-15T08:16:51.374Z,2.90
2023-03-15T08:19:19.367Z,2.67
2023-03-15T08:21:48.571Z,2.50
2023-03-15T08:24:16.499Z,2.30
2023-03-15T08:26:45.172Z,2.95
2023-03-15T08:29:13.017Z,3.30
2023-03-15T08:31:41.509Z,2.58
2023-03-15T08:34:09.411Z,2.50
2023-03-15T08:36:37.393Z,2.38
2023-03-15T08:39:06.592Z,2.30
2023-03-15T08:41:34.565Z,2.63
2023-03-15T08:44:02.485Z,2.97
2023-03-15T08:46:30.710Z,2.17
2023-03-15T08:48:58.591Z,2.80
2023-03-15T08:51:26.968Z,2.47
2023-03-15T08:53:55.014Z,2.10
2023-03-15T08:56:24.237Z,2.63
2023-03-15T08:58:52.213Z,2.40
2023-03-15T09:01:20.075Z,2.20
2023-03-15T09:03:47.915Z,2.63
2023-03-15T09:06:15.734Z,2.65
2023-03-15T09:08:43.542Z,2.75
2023-03-15T09:11:11.465Z,2.28
2023-03-15T09:13:40.655Z,2.40
2023-03-15T09:16:08.834Z,2.17
2023-03-15T09:18:36.672Z,2.50
2023-03-15T09:21:05.994Z,2.40
2023-03-15T09:23:34.810Z,2.78
2023-03-15T09:26:03.060Z,2.70
2023-03-15T09:28:30.874Z,2.00
2023-03-15T09:31:00.255Z,1.63
2023-03-15T09:33:28.256Z,2.42
2023-03-15T09:35:56.170Z,1.90
2023-03-15T09:38:24.102Z,2.10
2023-03-15T09:40:57.145Z,1.50
2023-03-15T09:43:44.490Z,1.70
2023-03-15T09:46:28.629Z,1.95
2023-03-15T09:49:02.631Z,2.25
2023-03-15T09:51:37.426Z,1.75
2023-03-15T09:54:09.463Z,1.27
2023-03-15T09:56:40.744Z,1.70
2023-03-15T09:59:11.524Z,1.70
2023-03-15T10:01:43.075Z,1.70
2023-03-15T10:04:17.642Z,1.50
2023-03-15T10:06:50.770Z,1.30
2023-03-15T10:09:22.146Z,2.00
2023-03-15T10:12:00.049Z,1.30
2023-03-15T10:14:37.382Z,1.30
2023-03-15T10:17:12.820Z,1.58
2023-03-15T10:19:48.786Z,1.40
2023-03-15T10:22:24.118Z,1.83
2023-03-15T10:24:55.661Z,1.35
2023-03-15T10:27:29.977Z,2.03
2023-03-15T10:29:59.784Z,1.25
2023-03-15T10:32:42.392Z,1.48
2023-03-15T10:35:15.742Z,1.25
2023-03-15T10:37:44.064Z,1.77
2023-03-15T10:40:15.897Z,1.83
2023-03-15T10:42:45.357Z,1.42
2023-03-15T10:45:25.094Z,1.80
2023-03-15T10:48:00.574Z,1.15
2023-03-15T10:50:30.925Z,1.00
2023-03-15T10:53:00.278Z,1.25
2023-03-15T10:55:32.934Z,1.52
2023-03-15T10:58:15.979Z,1.30
2023-03-15T11:00:50.973Z,0.90
2023-03-15T11:03:21.998Z,1.80
2023-03-15T11:05:51.525Z,1.40
2023-03-15T11:08:21.257Z,1.17
2023-03-15T11:10:56.957Z,1.20
2023-03-15T11:13:26.771Z,1.33
2023-03-15T11:16:01.403Z,1.30
2023-03-15T11:18:33.638Z,1.40
2023-03-15T11:21:06.059Z,1.35
2023-03-15T11:23:37.228Z,1.15
2023-03-15T11:26:06.663Z,2.10
2023-03-15T11:28:37.344Z,1.13
2023-03-15T11:31:06.213Z,0.93
2023-03-15T11:33:42.404Z,1.15
2023-03-15T11:36:16.822Z,1.67
2023-03-15T11:38:46.197Z,1.00
2023-03-15T11:41:26.353Z,1.30
2023-03-15T11:44:02.241Z,1.50
2023-03-15T11:46:35.414Z,1.15
2023-03-15T11:49:13.769Z,1.25
2023-03-15T11:51:41.765Z,1.13
2023-03-15T11:54:14.069Z,1.35
2023-03-15T11:56:52.045Z,1.10
2023-03-15T11:59:21.551Z,1.33
2023-03-15T12:01:51.509Z,1.48
2023-03-15T12:04:54.179Z,1.10
2023-03-15T12:07:37.377Z,0.70
2023-03-15T12:10:46.362Z,0.80
2023-03-15T12:13:28.181Z,0.77
2023-03-15T12:15:56.410Z,1.10
2023-03-15T12:18:31.134Z,1.10
2023-03-15T12:21:10.938Z,1.20
2023-03-15T12:23:46.283Z,1.02
2023-03-15T12:26:25.454Z,1.02
2023-03-15T12:29:04.813Z,1.77
2023-03-15T12:31:54.435Z,1.20
2023-03-15T12:34:29.594Z,0.70
2023-03-15T12:37:04.065Z,1.30
2023-03-15T12:39:59.748Z,0.60
2023-03-15T12:43:07.109Z,1.00
2023-03-15T12:45:46.374Z,0.70
2023-03-15T12:48:22.329Z,0.90
2023-03-15T12:50:55.274Z,0.80
2023-03-15T12:53:38.730Z,0.80
2023-03-15T12:56:44.143Z,0.90
2023-03-15T12:59:28.595Z,1.13
2023-03-15T13:01:58.976Z,1.10
2023-03-15T13:04:28.459Z,0.93
2023-03-15T13:07:24.860Z,1.02
2023-03-15T13:10:24.600Z,0.90
2023-03-15T13:12:59.446Z,1.70
2023-03-15T13:15:32.964Z,1.42
2023-03-15T13:18:08.663Z,1.23
2023-03-15T13:20:47.132Z,1.05
2023-03-15T13:23:17.866Z,1.02
2023-03-15T13:26:04.564Z,1.10
2023-03-15T13:28:37.393Z,1.00
2023-03-15T13:31:14.136Z,1.63
2023-03-15T13:33:42.051Z,1.17
2023-03-15T13:36:15.911Z,1.25
2023-03-15T13:38:45.653Z,1.20
2023-03-15T13:41:21.251Z,1.02
2023-03-15T13:43:51.340Z,1.05
2023-03-15T13:46:22.668Z,1.10
2023-03-15T13:48:51.830Z,1.85
2023-03-15T13:51:23.715Z,1.35
2023-03-15T13:53:54.435Z,1.85
2023-03-15T13:56:37.441Z,1.58
2023-03-15T13:59:13.203Z,1.67
2023-03-15T14:01:43.331Z,1.90
2023-03-15T14:04:16.680Z,1.80
2023-03-15T14:06:45.712Z,1.85
2023-03-15T14:09:20.300Z,2.03
2023-03-15T14:12:02.501Z,2.10
2023-03-15T14:14:32.524Z,2.10
2023-03-15T14:17:05.916Z,1.85
2023-03-15T14:19:35.789Z,1.83
2023-03-15T14:22:06.292Z,2.30
2023-03-15T14:24:38.157Z,1.58
2023-03-15T14:27:10.352Z,1.75
2023-03-15T14:29:39.675Z,2.00
2023-03-15T14:32:23.271Z,1.98
2023-03-15T14:34:51.281Z,1.52
2023-03-15T14:37:32.021Z,2.00
2023-03-15T14:40:14.995Z,1.52
2023-03-15T14:42:44.665Z,1.80
2023-03-15T14:45:13.165Z,1.70
2023-03-15T14:47:55.466Z,2.30
2023-03-15T14:50:25.345Z,2.20
2023-03-15T14:52:54.133Z,4.53
2023-03-15T14:55:25.074Z,2.65
2023-03-15T14:57:54.257Z,2.55
2023-03-15T15:00:23.042Z,3.20
2023-03-15T15:02:53.762Z,3.20
2023-03-15T15:05:26.131Z,2.55
2023-03-15T15:07:59.765Z,2.15
2023-03-15T15:10:27.643Z,1.98
2023-03-15T15:13:06.073Z,1.63
2023-03-15T15:15:43.909Z,2.08
2023-03-15T15:18:21.700Z,3.03
2023-03-15T15:20:51.390Z,2.50
2023-03-15T15:23:21.043Z,2.10
2023-03-15T15:25:49.413Z,2.25
2023-03-15T15:28:33.181Z,2.55
2023-03-15T15:31:02.288Z,2.20
2023-03-15T15:33:30.348Z,2.60
2023-03-15T15:35:58.961Z,2.53
2023-03-15T15:38:32.847Z,2.40
2023-03-15T15:41:00.781Z,2.75
2023-03-15T15:43:32.334Z,2.85
2023-03-15T15:46:01.858Z,2.55
2023-03-15T15:48:29.799Z,2.20
2023-03-15T15:50:57.722Z,2.42
2023-03-15T15:53:25.826Z,3.05
2023-03-15T15:55:53.645Z,1.88
2023-03-15T15:58:22.769Z,3.20
2023-03-15T16:00:51.937Z,3.33
2023-03-15T16:03:19.854Z,2.08
2023-03-15T16:05:47.719Z,2.55
2023-03-15T16:08:22.549Z,2.20
2023-03-15T16:10:50.488Z,2.72
2023-03-15T16:13:18.596Z,2.75
2023-03-15T16:15:46.522Z,3.13
2023-03-15T16:18:15.790Z,4.70
2023-03-15T16:20:44.100Z,2.45
2023-03-15T16:23:18.882Z,2.55
2023-03-15T16:25:48.616Z,2.47
2023-03-15T16:28:16.526Z,2.50
2023-03-15T16:30:46.655Z,3.20
2023-03-15T16:33:18.219Z,2.70
2023-03-15T16:35:48.675Z,2.63
2023-03-15T16:38:24.169Z,2.50
2023-03-15T16:40:53.357Z,2.40
2023-03-15T16:43:21.720Z,2.40
2023-03-15T16:45:49.558Z,2.15
2023-03-15T16:48:18.798Z,2.22
2023-03-15T16:50:48.149Z,2.33
2023-03-15T16:53:16.539Z,2.17
2023-03-15T16:55:44.436Z,1.95
2023-03-15T16:58:18.631Z,2.28
2023-03-15T17:00:48.239Z,3.00
2023-03-15T17:03:18.645Z,3.17
2023-03-15T17:05:48.265Z,2.80
2023-03-15T17:08:19.474Z,2.20
2023-03-15T17:10:47.483Z,3.70
2023-03-15T17:13:18.280Z,2.08
2023-03-15T17:15:46.116Z,2.45
2023-03-15T17:18:18.907Z,2.85
2023-03-15T17:20:48.057Z,3.00
2023-03-15T17:23:16.511Z,2.88
2023-03-15T17:25:44.399Z,2.40
2023-03-15T17:28:12.276Z,3.13
2023-03-15T17:30:40.158Z,2.78
2023-03-15T17:33:08.137Z,2.85
2023-03-15T17:35:40.698Z,3.25
2023-03-15T17:38:17.049Z,3.03
2023-03-15T17:40:45.026Z,3.05
2023-03-15T17:43:14.869Z,3.67
2023-03-15T17:45:43.027Z,3.40
2023-03-15T17:48:10.992Z,3.20
2023-03-15T17:50:43.254Z,3.28
2023-03-15T17:53:15.732Z,4.85
2023-03-15T17:55:44.352Z,4.90
2023-03-15T17:58:13.933Z,5.13
2023-03-15T18:00:43.433Z,4.88
2023-03-15T18:03:13.722Z,3.97
2023-03-15T18:05:42.961Z,4.60
2023-03-15T18:08:12.743Z,4.38
2023-03-15T18:10:42.457Z,4.05
2023-03-15T18:13:13.551Z,4.00
2023-03-15T18:15:41.537Z,4.38
2023-03-15T18:18:09.736Z,3.28
2023-03-15T18:20:37.649Z,3.45
2023-03-15T18:23:06.863Z,3.90
2023-03-15T18:25:35.994Z,3.92
2023-03-15T18:28:03.913Z,3.72
2023-03-15T18:30:32.750Z,6.30
2023-03-15T18:33:01.440Z,5.50
2023-03-15T18:35:31.353Z,5.40
2023-03-15T18:37:59.706Z,4.78
2023-03-15T18:40:31.778Z,4.13
2023-03-15T18:43:00.351Z,4.18
2023-03-15T18:45:30.230Z,5.05
2023-03-15T18:47:59.739Z,5.30
2023-03-15T18:50:28.454Z,4.55
2023-03-15T18:52:56.728Z,4.43
2023-03-15T18:55:24.745Z,5.00
2023-03-15T18:57:55.406Z,3.75
2023-03-15T19:00:26.159Z,4.93
2023-03-15T19:02:55.373Z,3.55
2023-03-15T19:05:24.250Z,4.32
2023-03-15T19:07:52.163Z,3.60
2023-03-15T19:10:21.298Z,3.67
2023-03-15T19:12:49.684Z,4.18
2023-03-15T19:15:19.900Z,4.20
2023-03-15T19:17:50.017Z,4.50
2023-03-15T19:20:21.364Z,4.35
2023-03-15T19:22:49.356Z,3.50
2023-03-15T19:25:17.188Z,3.85
2023-03-15T19:27:45.420Z,4.03
2023-03-15T19:30:17.857Z,3.80
2023-03-15T19:32:48.472Z,4.43
2023-03-15T19:35:17.588Z,3.78
2023-03-15T19:37:45.809Z,4.15
2023-03-15T19:40:15.498Z,4.38
2023-03-15T19:42:43.685Z,4.90
2023-03-15T19:45:12.874Z,5.38
2023-03-15T19:47:40.973Z,5.65
2023-03-15T19:50:14.423Z,5.80
2023-03-15T19:52:45.949Z,5.93
2023-03-15T19:55:14.682Z,5.03
2023-03-15T19:57:42.771Z,5.90
2023-03-15T20:00:14.184Z,6.57
2023-03-15T20:02:42.123Z,5.93
2023-03-15T20:05:12.652Z,6.35
2023-03-15T20:07:40.535Z,6.55
2023-03-15T20:10:10.098Z,5.55
2023-03-15T20:12:38.909Z,6.10
2023-03-15T20:15:10.085Z,6.20
2023-03-15T20:17:38.304Z,7.30
2023-03-15T20:20:09.831Z,6.05
2023-03-15T20:22:41.204Z,6.85
2023-03-15T20:25:10.180Z,6.45
2023-03-15T20:27:38.442Z,5.03
2023-03-15T20:30:07.549Z,5.25
2023-03-15T20:32:35.462Z,5.68
2023-03-15T20:35:08.786Z,4.65
2023-03-15T20:37:39.637Z,6.18
2023-03-15T20:40:11.074Z,6.32
2023-03-15T20:42:39.040Z,7.03
2023-03-15T20:45:09.546Z,6.20
2023-03-15T20:47:37.932Z,7.10
2023-03-15T20:50:07.105Z,6.70
2023-03-15T20:52:35.249Z,7.22
2023-03-15T20:55:03.689Z,6.50
2023-03-15T20:57:32.940Z,7.45
2023-03-15T21:00:00.982Z,7.25
2023-03-15T21:02:29.003Z,7.40
2023-03-15T21:04:56.855Z,7.65
2023-03-15T21:07:24.800Z,7.18
2023-03-15T21:09:52.616Z,7.05
2023-03-15T21:12:20.557Z,7.13
2023-03-15T21:14:49.728Z,8.73
2023-03-15T21:17:17.666Z,7.60
2023-03-15T21:19:45.537Z,7.88
2023-03-15T21:22:13.400Z,8.13
2023-03-15T21:24:54.797Z,8.95
2023-03-15T21:27:26.108Z,9.20
2023-03-15T21:29:55.832Z,9.20
2023-03-15T21:32:23.830Z,10.80
2023-03-15T21:34:51.678Z,12.85
2023-03-15T21:37:19.538Z,10.38
2023-03-15T21:39:47.404Z,17.30
2023-03-15T21:42:15.271Z,9.63
2023-03-15T21:44:43.239Z,9.00
2023-03-15T21:47:14.490Z,9.73
2023-03-15T21:49:44.655Z,8.90
2023-03-15T21:52:12.607Z,8.77
2023-03-15T21:54:40.645Z,8.88
2023-03-15T21:57:08.509Z,8.50
2023-03-15T21:59:36.316Z,9.25
2023-03-15T22:02:04.160Z,8.68
2023-03-15T22:04:34.063Z,9.63
2023-03-15T22:07:02.144Z,9.35
2023-03-15T22:09:29.986Z,9.75
2023-03-15T22:11:57.866Z,8.88
2023-03-15T22:14:25.727Z,8.80
2023-03-15T22:16:53.642Z,9.30
2023-03-15T22:19:21.576Z,8.85
2023-03-15T22:21:50.970Z,9.93
2023-03-15T22:24:18.823Z,9.75
2023-03-15T22:26:46.685Z,10.90
2023-03-15T22:29:14.530Z,10.23
2023-03-15T22:31:42.394Z,8.93
2023-03-15T22:34:10.259Z,9.20
2023-03-15T22:36:38.080Z,9.13
2023-03-15T22:39:07.607Z,9.50
2023-03-15T22:41:35.642Z,8.27
2023-03-15T22:44:03.442Z,8.50
2023-03-15T22:46:34.788Z,8.90
2023-03-15T22:49:05.797Z,7.53
2023-03-15T22:51:33.788Z,8.27
2023-03-15T22:54:01.686Z,8.85
2023-03-15T22:56:31.438Z,9.25
2023-03-15T22:58:59.299Z,9.15
2023-03-15T23:01:27.320Z,9.52
2023-03-15T23:03:55.190Z,9.27
2023-03-15T23:06:23.085Z,8.45
2023-03-15T23:08:51.277Z,11.02
2023-03-15T23:11:19.125Z,10.52
2023-03-15T23:13:49.192Z,10.20
2023-03-15T23:16:17.415Z,10.38
2023-03-15T23:18:45.416Z,9.10
2023-03-15T23:21:15.064Z,9.95
2023-03-15T23:23:43.650Z,9.88
2023-03-15T23:26:12.826Z,9.57
2023-03-15T23:28:40.697Z,12.60
2023-03-15T23:31:10.324Z,20.30
2023-03-15T23:33:38.392Z,21.38
2023-03-15T23:36:07.854Z,20.55
2023-03-15T23:38:35.729Z,21.50
2023-03-15T23:41:04.917Z,21.15
2023-03-15T23:43:33.713Z,24.48
2023-03-15T23:46:03.550Z,21.80
2023-03-15T23:48:35.170Z,21.40
2023-03-15T23:51:03.968Z,21.80
2023-03-15T23:53:32.353Z,20.08
2023-03-15T23:56:00.377Z,21.10
2023-03-15T23:58:28.755Z,21.38
